Aeroporto :
LOGIN :

Iscrizione | Disclaimer

   EN    FR    IT 

 










Sommario :    VFR   VFR Marginale   IFR   IFR Intensivo   IFR Molto Intensivo
Visibilità : 
Base nubi : 
>= 8 km
>= 3000ft
5 / 8 km
1000 / 3000 ft
1500m / 5 km
500 / 1000 ft
800 / 1500m
200 / 500 ft
< 800m
< 200 ft
Simboli :   Temporali  Nebbia  Neve Forte  Precipitazioni Forti  Vento > 20 kt
SIGMETs :   Varie  Temporali  Ghiacco  Turbolenza  Onda orograficha  Ceneri Vulcaniche






- Altitudine del aeroporto : 7 ft
- Codice IATA : XHE


LFTH - Hyeres

ULTIMO METAR :
  • 290100Z AUTO 03012KT CAVOK 15/07 Q1010 NOSIG

METARs OBSOLETI :
  • 290030Z AUTO 04012KT CAVOK 15/07 Q1009 NOSIG
  • 290000Z AUTO 04010KT CAVOK 14/06 Q1010 NOSIG
  • 282330Z AUTO 03005KT CAVOK 13/06 Q1010 NOSIG
  • 282300Z AUTO 05007KT 020V080 CAVOK 14/06 Q1010 TEMPO 05015G25KT
  • 282230Z AUTO 03005KT 350V090 CAVOK 14/06 Q1010 TEMPO 05015G25KT

TAF TAF LFTH
Valido dal 28 a 21 ore il 29 a 21 ore UTC


282000Z 2821/2921 05015G25KT CAVOK
BECMG 2900/2903 36005KT
BECMG 2909/2910 VRB02KT



MetMap, La meteo Aeronautica in un colpo d'occhio ! - Copyright ORBIFLY Dicembre 2007 - Disclaimer

ORBIFLY MET'MAP TEAM :

Programmazione e sviluppo : Alexandra Zaïnal
Concezione : Baudouin d'Aumeries
Aiuto per la programmazione : Marc-Olivier Méhu
Supporto tecnico e logistico : Manuel Goepfert
Aiuto per la traduzione : Arnaldo La Scala

Contatto : metmap@orbifly.com




FONTI E CREDITI :

   NOAA